createdAt,value
2022-10-20T00:02:05.877Z,59.22
2022-10-20T00:04:32.879Z,59.43
2022-10-20T00:06:59.854Z,59.44
2022-10-20T00:09:26.766Z,59.61
2022-10-20T00:11:53.623Z,59.65
2022-10-20T00:14:20.748Z,60.11
2022-10-20T00:16:47.718Z,60.13
2022-10-20T00:19:14.614Z,60.71
2022-10-20T00:21:41.541Z,60.80
2022-10-20T00:24:08.466Z,60.37
2022-10-20T00:26:35.330Z,60.14
2022-10-20T00:29:03.800Z,60.46
2022-10-20T00:31:31.016Z,60.84
2022-10-20T00:33:58.150Z,61.04
2022-10-20T00:36:25.229Z,61.53
2022-10-20T00:38:57.887Z,61.78
2022-10-20T00:41:25.195Z,61.31
2022-10-20T00:43:57.893Z,61.27
2022-10-20T00:46:30.662Z,61.44
2022-10-20T00:49:02.970Z,61.65
2022-10-20T00:51:33.173Z,61.84
2022-10-20T00:54:13.537Z,62.03
2022-10-20T00:56:43.430Z,61.87
2022-10-20T00:59:13.654Z,61.50
2022-10-20T01:01:41.631Z,61.42
2022-10-20T01:04:09.103Z,61.58
2022-10-20T01:06:36.573Z,62.20
2022-10-20T01:09:04.381Z,62.02
2022-10-20T01:11:47.983Z,61.59
2022-10-20T01:14:52.548Z,61.86
2022-10-20T01:17:34.928Z,61.34
2022-10-20T01:20:07.894Z,61.36
2022-10-20T01:22:37.933Z,62.23
2022-10-20T01:25:29.586Z,61.97
2022-10-20T01:28:06.962Z,62.49
2022-10-20T01:30:42.548Z,63.11
2022-10-20T01:36:07.294Z,63.69
2022-10-20T01:38:44.472Z,63.52
2022-10-20T01:41:49.650Z,64.27
2022-10-20T01:44:18.721Z,64.81
2022-10-20T01:46:46.481Z,64.76
2022-10-20T01:49:14.634Z,65.56
2022-10-20T01:54:23.715Z,65.94
2022-10-20T01:57:17.810Z,65.53
2022-10-20T01:59:47.394Z,64.44
2022-10-20T02:02:26.425Z,63.20
2022-10-20T02:05:11.620Z,62.45
2022-10-20T02:07:42.008Z,64.74
2022-10-20T02:10:31.418Z,65.81
2022-10-20T02:13:05.092Z,66.47
2022-10-20T02:15:33.587Z,66.47
2022-10-20T02:18:05.578Z,67.14
2022-10-20T02:20:34.478Z,66.62
2022-10-20T02:23:04.987Z,67.00
2022-10-20T02:25:33.617Z,67.09
2022-10-20T02:28:02.477Z,67.40
2022-10-20T02:30:30.805Z,67.23
2022-10-20T02:32:57.666Z,67.09
2022-10-20T02:35:31.072Z,67.11
2022-10-20T02:37:58.893Z,67.42
2022-10-20T02:40:26.642Z,67.63
2022-10-20T02:42:53.610Z,67.42
2022-10-20T02:45:20.522Z,67.56
2022-10-20T02:47:47.531Z,67.93
2022-10-20T02:50:14.600Z,68.03
2022-10-20T02:52:42.468Z,67.82
2022-10-20T02:55:09.651Z,67.80
2022-10-20T02:57:36.734Z,67.96
2022-10-20T03:00:05.439Z,67.65
2022-10-20T03:02:32.322Z,67.30
2022-10-20T03:04:59.227Z,67.74
2022-10-20T03:07:26.096Z,68.38
2022-10-20T03:09:52.989Z,68.85
2022-10-20T03:12:19.903Z,69.06
2022-10-20T03:14:46.908Z,68.67
2022-10-20T03:17:13.829Z,69.40
2022-10-20T03:19:41.516Z,69.74
2022-10-20T03:22:08.404Z,69.81
2022-10-20T03:24:35.274Z,69.87
2022-10-20T03:27:02.116Z,70.17
2022-10-20T03:29:28.918Z,70.67
2022-10-20T03:31:55.825Z,70.26
2022-10-20T03:34:23.000Z,70.83
2022-10-20T03:36:49.842Z,71.39
2022-10-20T03:39:16.670Z,71.50
2022-10-20T03:41:43.508Z,71.63
2022-10-20T03:44:11.177Z,72.02
2022-10-20T03:46:38.057Z,71.83
2022-10-20T03:49:05.095Z,71.87
2022-10-20T03:51:31.966Z,72.22
2022-10-20T03:53:58.828Z,72.56
2022-10-20T03:56:25.709Z,72.77
2022-10-20T03:58:52.596Z,72.60
2022-10-20T04:01:21.696Z,72.37
2022-10-20T04:03:48.613Z,72.88
2022-10-20T04:06:16.022Z,72.68
2022-10-20T04:08:42.958Z,73.27
2022-10-20T04:11:09.968Z,73.09
2022-10-20T04:13:36.975Z,73.08
2022-10-20T04:16:03.991Z,72.58
2022-10-20T04:18:31.911Z,73.00
2022-10-20T04:20:59.348Z,72.94
2022-10-20T04:23:26.266Z,73.10
2022-10-20T04:25:53.106Z,73.45
2022-10-20T04:28:20.927Z,73.17
2022-10-20T04:30:48.150Z,73.71
2022-10-20T04:33:15.433Z,73.34
2022-10-20T04:35:42.355Z,73.27
2022-10-20T04:38:09.439Z,73.30
2022-10-20T04:40:36.343Z,72.99
2022-10-20T04:43:03.219Z,72.54
2022-10-20T04:45:30.115Z,72.71
2022-10-20T04:47:57.017Z,72.22
2022-10-20T04:50:23.917Z,72.63
2022-10-20T04:53:06.645Z,72.91
2022-10-20T04:55:33.703Z,72.80
2022-10-20T04:58:00.541Z,72.67
2022-10-20T05:00:27.574Z,71.93
2022-10-20T05:02:55.385Z,71.25
2022-10-20T05:05:22.221Z,71.51
2022-10-20T05:07:49.036Z,71.25
2022-10-20T05:10:15.926Z,70.10
2022-10-20T05:12:42.782Z,69.38
2022-10-20T05:15:09.893Z,67.85
2022-10-20T05:17:37.416Z,66.62
2022-10-20T05:20:04.743Z,66.02
2022-10-20T05:22:31.637Z,65.64
2022-10-20T05:25:12.688Z,64.73
2022-10-20T05:27:45.500Z,64.16
2022-10-20T05:30:12.330Z,63.39
2022-10-20T05:32:39.192Z,63.57
2022-10-20T05:35:06.533Z,63.00
2022-10-20T05:37:33.396Z,62.63
2022-10-20T05:40:03.689Z,62.75
2022-10-20T05:42:30.695Z,62.05
2022-10-20T05:44:57.581Z,61.92
2022-10-20T05:47:24.744Z,61.50
2022-10-20T05:49:51.689Z,61.37
2022-10-20T05:52:18.564Z,61.07
2022-10-20T05:54:45.467Z,60.99
2022-10-20T05:57:12.309Z,60.29
2022-10-20T05:59:39.313Z,60.45
2022-10-20T06:02:06.675Z,60.04
2022-10-20T06:04:33.758Z,59.97
2022-10-20T06:07:00.670Z,59.52
2022-10-20T06:09:27.561Z,58.25
2022-10-20T06:11:54.991Z,57.95
2022-10-20T06:14:22.628Z,57.59
2022-10-20T06:16:53.905Z,57.10
2022-10-20T06:19:20.840Z,57.24
2022-10-20T06:21:49.295Z,57.33
2022-10-20T06:24:17.251Z,57.31
2022-10-20T06:26:44.173Z,57.09
2022-10-20T06:29:14.538Z,57.50
2022-10-20T06:31:44.914Z,57.76
2022-10-20T06:34:18.271Z,57.62
2022-10-20T06:36:45.658Z,57.06
2022-10-20T06:39:15.767Z,57.39
2022-10-20T06:41:42.826Z,57.30
2022-10-20T06:44:19.398Z,57.06
2022-10-20T06:46:46.769Z,56.94
2022-10-20T06:49:14.191Z,56.70
2022-10-20T06:51:41.517Z,56.62
2022-10-20T06:54:09.412Z,56.86
2022-10-20T06:56:37.372Z,56.11
2022-10-20T06:59:04.304Z,56.67
2022-10-20T07:01:33.954Z,56.42
2022-10-20T07:04:06.288Z,56.63
2022-10-20T07:06:36.374Z,57.19
2022-10-20T07:09:05.159Z,57.36
2022-10-20T07:11:32.769Z,57.04
2022-10-20T07:14:00.663Z,57.62
2022-10-20T07:16:30.751Z,57.46
2022-10-20T07:18:57.859Z,57.52
2022-10-20T07:21:32.270Z,57.60
2022-10-20T07:24:04.484Z,57.10
2022-10-20T07:26:33.793Z,57.74
2022-10-20T07:29:03.022Z,57.21
2022-10-20T07:31:33.039Z,57.32
2022-10-20T07:34:12.846Z,56.96
2022-10-20T07:36:47.567Z,56.24
2022-10-20T07:39:14.469Z,56.16
2022-10-20T07:41:44.159Z,56.35
2022-10-20T07:44:11.354Z,56.33
2022-10-20T07:46:38.214Z,56.29
2022-10-20T07:51:52.123Z,55.49
2022-10-20T07:54:19.098Z,55.35
2022-10-20T07:56:46.522Z,54.92
2022-10-20T07:59:14.152Z,54.84
2022-10-20T08:01:41.922Z,54.28
2022-10-20T08:04:08.893Z,54.76
2022-10-20T08:06:35.765Z,53.17
2022-10-20T08:09:02.781Z,52.96
2022-10-20T08:11:29.881Z,52.91
2022-10-20T08:13:56.748Z,52.08
2022-10-20T08:16:30.527Z,51.50
2022-10-20T08:19:02.971Z,52.06
2022-10-20T08:21:30.041Z,51.00
2022-10-20T08:23:57.014Z,51.73
2022-10-20T08:26:25.971Z,51.81
2022-10-20T08:28:54.830Z,52.30
2022-10-20T08:31:23.306Z,52.25
2022-10-20T08:33:52.955Z,51.68
2022-10-20T08:36:21.143Z,51.76
2022-10-20T08:38:48.269Z,51.88
2022-10-20T08:41:25.681Z,51.90
2022-10-20T08:43:55.304Z,51.76
2022-10-20T08:46:29.069Z,51.37
2022-10-20T08:48:56.581Z,51.39
2022-10-20T08:51:34.781Z,50.74
2022-10-20T08:54:02.802Z,50.12
2022-10-20T08:56:31.209Z,50.22
2022-10-20T08:58:58.213Z,49.72
2022-10-20T09:01:29.351Z,49.50
2022-10-20T09:04:20.201Z,48.91
2022-10-20T09:06:53.688Z,49.22
2022-10-20T09:09:23.155Z,49.05
2022-10-20T09:11:51.272Z,48.45
2022-10-20T09:14:18.235Z,48.03
2022-10-20T09:16:59.688Z,48.11
2022-10-20T09:19:28.572Z,48.50
2022-10-20T09:21:58.470Z,48.40
2022-10-20T09:24:30.114Z,48.25
2022-10-20T09:27:15.955Z,47.70
2022-10-20T09:29:42.909Z,47.86
2022-10-20T09:32:45.929Z,47.24
2022-10-20T09:35:30.112Z,46.65
2022-10-20T09:38:02.203Z,46.82
2022-10-20T09:40:29.874Z,45.54
2022-10-20T09:43:11.056Z,45.13
2022-10-20T10:17:12.006Z,43.17
2022-10-20T10:19:38.841Z,43.08
2022-10-20T10:22:05.792Z,43.48
2022-10-20T10:24:42.759Z,43.79
2022-10-20T10:27:36.745Z,43.69
2022-10-20T10:30:37.333Z,43.79
2022-10-20T10:33:27.742Z,43.50
2022-10-20T10:35:55.125Z,43.01
2022-10-20T10:38:22.414Z,42.93
2022-10-20T10:41:16.174Z,43.20
2022-10-20T10:44:07.092Z,42.94
2022-10-20T10:49:27.912Z,43.13
2022-10-20T10:51:57.710Z,43.04
2022-10-20T10:54:39.482Z,43.09
2022-10-20T10:57:18.295Z,42.91
2022-10-20T10:59:49.842Z,42.95
2022-10-20T11:02:54.114Z,42.43
2022-10-20T11:05:46.844Z,42.38
2022-10-20T11:08:31.960Z,42.70
2022-10-20T11:11:07.530Z,42.58
2022-10-20T11:13:45.485Z,42.50
2022-10-20T11:16:15.406Z,42.17
2022-10-20T11:19:17.146Z,42.48
2022-10-20T11:22:28.571Z,43.01
2022-10-20T11:25:12.334Z,42.90
2022-10-20T11:27:39.512Z,42.74
2022-10-20T11:30:22.271Z,43.17
2022-10-20T11:33:06.315Z,42.55
2022-10-20T11:35:49.655Z,43.79
2022-10-20T11:38:31.473Z,43.08
2022-10-20T11:41:19.218Z,42.76
2022-10-20T11:44:27.533Z,42.88
2022-10-20T11:47:08.086Z,42.71
2022-10-20T11:49:35.253Z,43.06
2022-10-20T11:52:29.170Z,42.99
2022-10-20T11:55:17.318Z,42.38
2022-10-20T11:57:57.695Z,42.66
2022-10-20T12:00:38.156Z,42.50
2022-10-20T12:03:38.051Z,42.47
2022-10-20T12:06:19.711Z,42.78
2022-10-20T12:09:23.933Z,43.12
2022-10-20T12:11:57.494Z,41.85
2022-10-20T12:14:33.770Z,41.86
2022-10-20T12:17:27.142Z,42.22
2022-10-20T12:20:23.085Z,41.61
2022-10-20T12:22:55.333Z,40.94
2022-10-20T12:25:24.921Z,40.89
2022-10-20T12:28:22.948Z,41.20
2022-10-20T12:31:02.912Z,41.20
2022-10-20T12:33:59.339Z,41.51
2022-10-20T12:36:33.669Z,41.69
2022-10-20T12:39:29.679Z,41.53
2022-10-20T12:42:01.098Z,41.63
2022-10-20T12:44:32.413Z,41.15
2022-10-20T12:47:07.696Z,41.54
2022-10-20T12:49:43.196Z,41.21
2022-10-20T12:52:21.264Z,41.27
2022-10-20T12:54:55.540Z,41.58
2022-10-20T12:57:45.275Z,41.70
2022-10-20T13:00:23.606Z,41.84
2022-10-20T13:02:51.273Z,42.30
2022-10-20T13:05:44.633Z,42.39
2022-10-20T13:08:23.458Z,41.98
2022-10-20T13:10:50.918Z,42.17
2022-10-20T13:13:20.663Z,41.83
2022-10-20T13:15:51.673Z,42.12
2022-10-20T13:18:47.120Z,42.34
2022-10-20T13:21:32.814Z,42.43
2022-10-20T13:24:04.421Z,42.91
2022-10-20T13:26:51.613Z,42.47
2022-10-20T13:29:43.981Z,42.72
2022-10-20T13:32:16.863Z,42.68
2022-10-20T13:34:52.323Z,42.86
2022-10-20T13:37:55.246Z,43.08
2022-10-20T13:40:51.488Z,42.92
2022-10-20T13:43:29.996Z,43.22
2022-10-20T13:46:25.248Z,42.78
2022-10-20T13:49:15.526Z,43.29
2022-10-20T13:51:52.488Z,43.32
2022-10-20T13:54:44.878Z,43.40
2022-10-20T13:57:32.685Z,43.49
2022-10-20T14:00:17.554Z,43.19
2022-10-20T14:03:01.707Z,43.53
2022-10-20T14:05:36.100Z,43.53
2022-10-20T14:08:08.855Z,43.60
2022-10-20T14:10:38.836Z,43.43
2022-10-20T14:13:10.804Z,43.20
2022-10-20T14:15:38.113Z,43.31
2022-10-20T14:18:08.614Z,43.19
2022-10-20T14:20:42.019Z,43.36
2022-10-20T14:23:11.082Z,43.59
2022-10-20T14:25:38.837Z,43.48
2022-10-20T14:28:07.581Z,43.63
2022-10-20T14:30:38.695Z,43.50
2022-10-20T14:33:14.923Z,43.57
2022-10-20T14:35:50.502Z,43.51
2022-10-20T14:38:29.811Z,43.81
2022-10-20T14:40:58.469Z,44.02
2022-10-20T14:43:39.143Z,43.79
2022-10-20T14:46:09.084Z,43.61
2022-10-20T14:48:44.681Z,43.49
2022-10-20T14:51:45.103Z,43.63
2022-10-20T14:54:21.244Z,43.53
2022-10-20T14:57:19.247Z,43.45
2022-10-20T14:59:59.140Z,43.88
2022-10-20T15:02:29.484Z,44.58
2022-10-20T15:04:56.643Z,44.62
2022-10-20T15:07:28.452Z,44.67
2022-10-20T15:10:06.235Z,45.29
2022-10-20T15:12:42.711Z,45.77
2022-10-20T15:15:12.600Z,45.74
2022-10-20T15:17:43.964Z,46.26
2022-10-20T15:20:34.588Z,46.31
2022-10-20T15:23:22.854Z,47.06
2022-10-20T15:25:54.767Z,46.84
2022-10-20T15:28:45.896Z,47.16
2022-10-20T15:31:12.795Z,47.22
2022-10-20T15:33:42.891Z,47.96
2022-10-20T15:36:28.361Z,47.74
2022-10-20T15:38:56.567Z,48.45
2022-10-20T15:41:28.539Z,48.54
2022-10-20T15:43:55.543Z,48.84
2022-10-20T15:46:23.089Z,48.56
2022-10-20T15:48:50.132Z,48.76
2022-10-20T15:51:17.100Z,49.44
2022-10-20T15:53:46.132Z,49.36
2022-10-20T15:56:13.004Z,49.90
2022-10-20T15:58:40.129Z,49.81
2022-10-20T16:01:07.860Z,50.24
2022-10-20T16:03:35.872Z,49.93
2022-10-20T16:06:02.734Z,50.28
2022-10-20T16:08:29.813Z,50.20
2022-10-20T16:10:57.519Z,50.64
2022-10-20T16:13:24.467Z,51.05
2022-10-20T16:15:51.451Z,50.84
2022-10-20T16:18:18.298Z,51.25
2022-10-20T16:20:45.226Z,51.60
2022-10-20T16:23:12.219Z,51.79
2022-10-20T16:25:40.801Z,51.77
2022-10-20T16:28:07.909Z,51.64
2022-10-20T16:30:34.970Z,52.30
2022-10-20T16:33:02.043Z,52.69
2022-10-20T16:35:28.965Z,52.93
2022-10-20T16:37:56.184Z,52.84
2022-10-20T16:40:23.419Z,52.57
2022-10-20T16:42:50.286Z,53.45
2022-10-20T16:45:17.387Z,53.30
2022-10-20T16:47:44.347Z,53.42
2022-10-20T16:50:11.412Z,53.53
2022-10-20T16:52:38.485Z,53.83
2022-10-20T16:55:05.770Z,54.17
2022-10-20T16:57:38.977Z,54.09
2022-10-20T17:00:09.033Z,54.30
2022-10-20T17:02:36.685Z,54.17
2022-10-20T17:05:06.800Z,54.56
2022-10-20T17:07:36.613Z,54.62
2022-10-20T17:10:03.852Z,54.78
2022-10-20T17:12:30.771Z,54.28
2022-10-20T17:14:57.648Z,54.42
2022-10-20T17:17:24.616Z,55.00
2022-10-20T17:19:51.579Z,54.58
2022-10-20T17:22:19.968Z,54.80
2022-10-20T17:24:46.817Z,55.18
2022-10-20T17:27:13.719Z,55.38
2022-10-20T17:29:40.749Z,55.25
2022-10-20T17:32:07.622Z,55.34
2022-10-20T17:34:34.767Z,55.67
2022-10-20T17:37:01.701Z,55.67
2022-10-20T17:39:28.709Z,55.48
2022-10-20T17:41:55.910Z,55.90
2022-10-20T17:44:22.816Z,55.70
2022-10-20T17:46:49.682Z,56.12
2022-10-20T17:49:16.621Z,56.68
2022-10-20T17:51:44.309Z,56.61
2022-10-20T17:54:11.200Z,56.14
2022-10-20T17:56:40.265Z,56.43
2022-10-20T17:59:08.941Z,57.46
2022-10-20T18:01:39.010Z,57.71
2022-10-20T18:04:08.657Z,58.09
2022-10-20T18:06:36.805Z,58.16
2022-10-20T18:09:12.503Z,57.93
2022-10-20T18:11:43.964Z,57.62
2022-10-20T18:14:10.957Z,57.35
2022-10-20T18:16:39.673Z,57.07
2022-10-20T18:19:08.103Z,58.04
2022-10-20T18:21:35.022Z,58.50
2022-10-20T18:24:07.491Z,58.64
2022-10-20T18:26:36.893Z,58.91
2022-10-20T18:29:06.120Z,59.53
2022-10-20T18:31:35.196Z,59.26
2022-10-20T18:34:06.946Z,59.44
2022-10-20T18:36:39.107Z,59.74
2022-10-20T18:39:09.895Z,59.16
2022-10-20T18:41:39.857Z,60.27
2022-10-20T18:44:10.165Z,59.90
2022-10-20T18:46:37.764Z,59.79
2022-10-20T18:49:07.131Z,59.88
2022-10-20T18:51:36.021Z,59.37
2022-10-20T18:54:04.973Z,59.58
2022-10-20T18:56:32.136Z,59.42
2022-10-20T18:59:01.873Z,59.72
2022-10-20T19:01:31.317Z,58.36
2022-10-20T19:03:59.620Z,58.51
2022-10-20T19:06:29.615Z,58.39
2022-10-20T19:08:59.713Z,58.05
2022-10-20T19:11:29.480Z,58.34
2022-10-20T19:13:57.673Z,58.07
2022-10-20T19:16:30.514Z,57.99
2022-10-20T19:18:59.434Z,56.97
2022-10-20T19:21:28.316Z,56.15
2022-10-20T19:24:07.512Z,56.23
2022-10-20T19:26:43.691Z,55.82
2022-10-20T19:29:14.402Z,56.38
2022-10-20T19:31:46.166Z,56.14
2022-10-20T19:34:25.548Z,56.73
2022-10-20T19:36:53.121Z,57.58
2022-10-20T19:39:27.303Z,58.61
2022-10-20T19:41:56.707Z,59.11
2022-10-20T19:44:23.935Z,59.29
2022-10-20T19:46:52.155Z,59.43
2022-10-20T19:49:20.402Z,59.42
2022-10-20T19:51:47.522Z,59.33
2022-10-20T19:54:14.951Z,59.52
2022-10-20T19:56:42.232Z,60.69
2022-10-20T19:59:09.893Z,59.85
2022-10-20T20:01:37.670Z,59.36
2022-10-20T20:04:05.596Z,59.35
2022-10-20T20:06:34.287Z,59.69
2022-10-20T20:09:04.260Z,60.66
2022-10-20T20:11:31.321Z,60.99
2022-10-20T20:14:00.878Z,60.95
2022-10-20T20:16:29.217Z,61.47
2022-10-20T20:18:56.314Z,61.15
2022-10-20T20:21:23.953Z,61.35
2022-10-20T20:23:59.201Z,62.01
2022-10-20T20:26:27.718Z,61.44
2022-10-20T20:28:55.982Z,61.51
2022-10-20T20:31:23.386Z,61.78
2022-10-20T20:33:50.853Z,61.45
2022-10-20T20:36:17.751Z,61.59
2022-10-20T20:38:44.819Z,60.74
2022-10-20T20:41:17.271Z,61.37
2022-10-20T20:43:47.555Z,60.94
2022-10-20T20:46:16.836Z,61.13
2022-10-20T20:48:44.277Z,61.83
2022-10-20T20:51:11.963Z,61.71
2022-10-20T20:53:39.917Z,61.78
2022-10-20T20:56:10.062Z,60.66
2022-10-20T20:58:37.433Z,60.98
2022-10-20T21:01:13.761Z,61.10
2022-10-20T21:03:40.899Z,61.14
2022-10-20T21:06:13.755Z,61.07
2022-10-20T21:08:43.282Z,59.80
2022-10-20T21:11:18.468Z,59.20
2022-10-20T21:13:46.807Z,57.55
2022-10-20T21:16:20.776Z,57.05
2022-10-20T21:18:49.611Z,56.60
2022-10-20T21:21:24.632Z,55.97
2022-10-20T21:23:52.172Z,56.30
2022-10-20T21:26:20.766Z,56.42
2022-10-20T21:28:48.156Z,57.14
2022-10-20T21:31:18.262Z,56.48
2022-10-20T21:33:46.448Z,55.14
2022-10-20T21:36:16.070Z,54.67
2022-10-20T21:38:43.978Z,53.66
2022-10-20T21:41:16.413Z,53.48
2022-10-20T21:43:48.085Z,52.82
2022-10-20T21:46:21.208Z,52.92
2022-10-20T21:48:50.119Z,52.99
2022-10-20T21:51:26.638Z,53.38
2022-10-20T21:54:02.141Z,54.64
2022-10-20T21:56:29.556Z,56.30
2022-10-20T21:58:56.598Z,56.34
2022-10-20T22:01:25.206Z,55.73
2022-10-20T22:03:53.753Z,54.98
2022-10-20T22:06:23.047Z,54.71
2022-10-20T22:08:52.035Z,53.51
2022-10-20T22:11:22.702Z,53.21
2022-10-20T22:13:50.202Z,53.15
2022-10-20T22:16:20.699Z,53.02
2022-10-20T22:18:47.675Z,52.06
2022-10-20T22:21:17.454Z,53.05
2022-10-20T22:23:45.470Z,53.07
2022-10-20T22:26:13.460Z,52.52
2022-10-20T22:28:41.053Z,52.51
2022-10-20T22:31:08.120Z,52.16
2022-10-20T22:33:35.464Z,52.36
2022-10-20T22:36:03.814Z,52.58
2022-10-20T22:38:30.860Z,52.39
2022-10-20T22:40:59.261Z,52.22
2022-10-20T22:43:27.384Z,51.92
2022-10-20T22:45:54.446Z,52.00
2022-10-20T22:48:21.670Z,52.24
2022-10-20T22:50:48.841Z,51.13
2022-10-20T22:53:15.881Z,51.42
2022-10-20T22:55:42.804Z,51.15
2022-10-20T22:58:10.038Z,51.36
2022-10-20T23:00:40.101Z,50.66
2022-10-20T23:03:07.268Z,51.70
2022-10-20T23:05:34.194Z,50.71
2022-10-20T23:08:01.117Z,50.69
2022-10-20T23:10:28.288Z,50.59
2022-10-20T23:12:55.143Z,51.48
2022-10-20T23:15:22.012Z,51.00
2022-10-20T23:17:48.910Z,50.81
2022-10-20T23:20:15.980Z,50.60
2022-10-20T23:22:42.876Z,51.10
2022-10-20T23:25:10.015Z,50.75
2022-10-20T23:27:37.352Z,50.04
2022-10-20T23:30:04.815Z,50.50
2022-10-20T23:32:31.740Z,49.97
2022-10-20T23:34:58.736Z,49.31
2022-10-20T23:37:25.583Z,50.06
2022-10-20T23:39:52.450Z,50.10
2022-10-20T23:42:19.278Z,49.59
2022-10-20T23:44:46.179Z,49.37
2022-10-20T23:47:13.039Z,49.91
2022-10-20T23:49:39.895Z,49.64
2022-10-20T23:52:06.722Z,49.47
2022-10-20T23:54:33.645Z,49.38
2022-10-20T23:57:00.548Z,49.55
2022-10-20T23:59:27.374Z,49.14
